Time;durP1;ratioP1;P1;durP2;ratioP2;P2;SDS_P1;SDS_P2;PMS_P1;PMS_P2;Temp;Humidity;BMP_temperature;BMP_pressure;BME280_temperature;BME280_humidity;BME280_pressure;Samples;Min_cycle;Max_cycle;Signal;HPM_P1;HPM_P2
2021/04/23 00:00:55;;;;;;;;;;;6.10;99.90;;;;;;6946009;28;20281;-65
2021/04/23 00:04:16;;;;;;;;;;;6.10;99.90;;;;;;6972556;28;19956;-65
2021/04/23 00:07:37;;;;;;;;;;;6.10;99.90;;;;;;6962467;28;19912;-66
2021/04/23 00:10:59;;;;;;;;;;;6.10;99.90;;;;;;6958916;28;20379;-64
2021/04/23 00:14:22;;;;;;;;;;;6.00;99.90;;;;;;6978018;28;20009;-64
2021/04/23 00:17:43;;;;;;;;;;;6.00;99.90;;;;;;6966901;28;20356;-64
2021/04/23 00:21:05;;;;;;;;;;;6.10;99.90;;;;;;6961522;28;20494;-64
2021/04/23 00:24:26;;;;;;;;;;;6.10;99.90;;;;;;6961152;28;20270;-65
2021/04/23 00:27:53;;;;;;;;;;;6.10;99.90;;;;;;6963202;28;19913;-64
2021/04/23 00:31:14;;;;;;;;;;;6.10;99.90;;;;;;6966157;28;19913;-64
2021/04/23 00:34:35;;;;;;;;;;;6.00;99.90;;;;;;6963433;28;20368;-64
2021/04/23 00:37:57;;;;;;;;;;;6.00;99.90;;;;;;6982575;28;19927;-64
2021/04/23 00:41:22;;;;;;;;;;;6.00;99.90;;;;;;6982429;28;19963;-65
2021/04/23 00:44:43;;;;;;;;;;;6.00;99.90;;;;;;6965430;28;19916;-66
2021/04/23 00:48:05;;;;;;;;;;;6.10;99.90;;;;;;6965129;28;19913;-65
2021/04/23 00:51:28;;;;;;;;;;;6.00;99.90;;;;;;6958767;28;20284;-66
2021/04/23 00:54:49;;;;;;;;;;;6.00;99.90;;;;;;6966396;28;19924;-65
2021/04/23 00:58:11;;;;;;;;;;;5.90;99.90;;;;;;6965485;28;19959;-65
2021/04/23 01:01:55;;;;;;;;;;;5.90;99.90;;;;;;6971277;28;19912;-65
2021/04/23 01:05:16;;;;;;;;;;;5.90;99.90;;;;;;6972215;28;19927;-65
2021/04/23 01:08:37;;;;;;;;;;;5.90;99.90;;;;;;6969550;28;19950;-66
2021/04/23 01:11:59;;;;;;;;;;;6.00;99.90;;;;;;6976011;28;19917;-64
2021/04/23 01:15:22;;;;;;;;;;;5.90;99.90;;;;;;6978478;28;19917;-65
2021/04/23 01:18:43;;;;;;;;;;;5.90;99.90;;;;;;6955127;28;19963;-65
2021/04/23 01:22:04;;;;;;;;;;;5.90;99.90;;;;;;6982112;28;20412;-66
2021/04/23 01:25:25;;;;;;;;;;;5.80;99.90;;;;;;6982395;28;19916;-64
2021/04/23 01:28:47;;;;;;;;;;;5.80;99.90;;;;;;6981718;28;19912;-65
2021/04/23 01:32:08;;;;;;;;;;;5.90;99.90;;;;;;6980596;28;20265;-65
2021/04/23 01:35:31;;;;;;;;;;;5.90;99.90;;;;;;6964242;28;19920;-66
2021/04/23 01:38:52;;;;;;;;;;;5.90;99.90;;;;;;6978125;28;20436;-65
2021/04/23 01:42:13;;;;;;;;;;;5.90;99.90;;;;;;6963449;28;19912;-66
2021/04/23 01:45:34;;;;;;;;;;;5.90;99.90;;;;;;6975458;28;19916;-65
2021/04/23 01:48:55;;;;;;;;;;;5.80;99.90;;;;;;6973293;28;19917;-66
2021/04/23 01:52:16;;;;;;;;;;;5.80;99.90;;;;;;6956975;28;19913;-65
2021/04/23 01:55:37;;;;;;;;;;;5.80;99.90;;;;;;6954510;28;19912;-65
2021/04/23 01:58:58;;;;;;;;;;;5.80;99.90;;;;;;6960847;28;19935;-64
2021/04/23 02:02:19;;;;;;;;;;;5.80;99.90;;;;;;6979796;28;19916;-64
2021/04/23 02:05:41;;;;;;;;;;;5.70;99.90;;;;;;6962867;28;19973;-64
2021/04/23 02:09:03;;;;;;;;;;;5.70;99.90;;;;;;6953197;28;19973;-66
2021/04/23 02:12:24;;;;;;;;;;;5.80;99.90;;;;;;6969392;28;19913;-66
2021/04/23 02:15:44;;;;;;;;;;;5.80;99.90;;;;;;6968443;28;19924;-65
2021/04/23 02:19:06;;;;;;;;;;;5.70;99.90;;;;;;6973394;28;19912;-66
2021/04/23 02:22:27;;;;;;;;;;;5.70;99.90;;;;;;6964998;28;19912;-66
2021/04/23 02:25:49;;;;;;;;;;;5.70;99.90;;;;;;6981709;28;19912;-64
2021/04/23 02:29:11;;;;;;;;;;;5.60;99.90;;;;;;6964469;28;19912;-64
2021/04/23 02:32:32;;;;;;;;;;;5.60;99.90;;;;;;6980310;28;19920;-63
2021/04/23 02:35:54;;;;;;;;;;;5.60;99.90;;;;;;6972029;28;19912;-64
2021/04/23 02:39:19;;;;;;;;;;;5.60;99.90;;;;;;6969642;28;19972;-64
2021/04/23 02:42:40;;;;;;;;;;;5.60;99.90;;;;;;6979221;28;19916;-65
2021/04/23 02:46:02;;;;;;;;;;;5.60;99.90;;;;;;6963276;28;19923;-64
2021/04/23 02:49:23;;;;;;;;;;;5.70;99.90;;;;;;6980458;28;19935;-66
2021/04/23 02:52:44;;;;;;;;;;;5.80;99.90;;;;;;6979692;28;19912;-65
2021/04/23 02:56:06;;;;;;;;;;;5.90;99.90;;;;;;6991095;28;19919;-66
2021/04/23 02:59:27;;;;;;;;;;;6.00;99.90;;;;;;6954061;28;20400;-66
2021/04/23 03:02:48;;;;;;;;;;;6.10;99.90;;;;;;6961916;28;19927;-65
2021/04/23 03:06:11;;;;;;;;;;;6.20;99.90;;;;;;6956374;28;19920;-65
2021/04/23 03:09:32;;;;;;;;;;;6.30;99.90;;;;;;6957136;28;19916;-66
2021/04/23 03:12:54;;;;;;;;;;;6.40;99.90;;;;;;6977907;28;19934;-66
2021/04/23 03:16:16;;;;;;;;;;;6.40;99.90;;;;;;6958763;28;19920;-66
2021/04/23 03:19:36;;;;;;;;;;;6.50;99.90;;;;;;6961038;28;20298;-66
2021/04/23 03:22:57;;;;;;;;;;;6.50;99.90;;;;;;6977734;28;19917;-66
2021/04/23 03:26:19;;;;;;;;;;;6.50;99.90;;;;;;6956104;28;19917;-66
2021/04/23 03:29:40;;;;;;;;;;;6.60;99.90;;;;;;6984494;28;19912;-66
2021/04/23 03:33:02;;;;;;;;;;;6.60;99.90;;;;;;6958322;28;19951;-66
2021/04/23 03:36:23;;;;;;;;;;;6.60;99.90;;;;;;6975258;28;19912;-65
2021/04/23 03:39:44;;;;;;;;;;;6.60;99.90;;;;;;6983528;28;20281;-66
2021/04/23 03:43:05;;;;;;;;;;;6.60;99.90;;;;;;6958569;28;19923;-66
2021/04/23 03:46:27;;;;;;;;;;;6.60;99.90;;;;;;6965394;28;19912;-66
2021/04/23 03:49:49;;;;;;;;;;;6.50;99.90;;;;;;6975391;28;19970;-65
2021/04/23 03:53:11;;;;;;;;;;;6.40;99.90;;;;;;6973915;28;19920;-67
2021/04/23 03:56:32;;;;;;;;;;;6.40;99.90;;;;;;6966145;28;20152;-66
2021/04/23 03:59:52;;;;;;;;;;;6.40;99.90;;;;;;6971798;28;20285;-67
2021/04/23 04:03:13;;;;;;;;;;;6.40;99.90;;;;;;6966718;28;19920;-66
2021/04/23 04:06:34;;;;;;;;;;;6.40;99.90;;;;;;6967086;28;19913;-66
2021/04/23 04:09:55;;;;;;;;;;;6.40;99.90;;;;;;6984496;28;19919;-66
2021/04/23 04:13:16;;;;;;;;;;;6.30;99.90;;;;;;6957274;28;19920;-66
2021/04/23 04:16:37;;;;;;;;;;;6.40;99.90;;;;;;6968659;28;19912;-64
2021/04/23 04:19:58;;;;;;;;;;;6.40;99.90;;;;;;6961749;28;19970;-65
2021/04/23 04:23:20;;;;;;;;;;;6.40;99.90;;;;;;6983401;28;19924;-65
2021/04/23 04:26:40;;;;;;;;;;;6.50;99.90;;;;;;6984062;28;20355;-66
2021/04/23 04:30:02;;;;;;;;;;;6.50;99.90;;;;;;6981238;28;20398;-67
2021/04/23 04:33:23;;;;;;;;;;;6.50;99.90;;;;;;6958573;28;19913;-67
2021/04/23 04:36:44;;;;;;;;;;;6.40;99.90;;;;;;6964076;28;19974;-66
2021/04/23 04:40:06;;;;;;;;;;;6.40;99.90;;;;;;6981141;28;19919;-65
2021/04/23 04:43:29;;;;;;;;;;;6.40;99.90;;;;;;6947747;28;19967;-67
2021/04/23 04:46:50;;;;;;;;;;;6.40;99.90;;;;;;6971917;28;19924;-67
2021/04/23 04:50:13;;;;;;;;;;;6.50;99.90;;;;;;6976938;28;19913;-66
2021/04/23 04:53:34;;;;;;;;;;;6.40;99.90;;;;;;6958022;28;19920;-67
2021/04/23 04:56:55;;;;;;;;;;;6.40;99.90;;;;;;6962396;28;20315;-67
2021/04/23 05:00:16;;;;;;;;;;;6.40;99.90;;;;;;6984618;28;19917;-66
2021/04/23 05:03:37;;;;;;;;;;;6.40;99.90;;;;;;6986021;28;19916;-66
2021/04/23 05:06:58;;;;;;;;;;;6.40;99.90;;;;;;6973217;28;19970;-67
2021/04/23 05:10:19;;;;;;;;;;;6.50;99.90;;;;;;6960790;28;19916;-65
2021/04/23 05:13:39;;;;;;;;;;;6.50;99.90;;;;;;6979849;28;19919;-65
2021/04/23 05:17:00;;;;;;;;;;;6.60;99.90;;;;;;6955138;28;19913;-67
2021/04/23 05:20:21;;;;;;;;;;;6.60;99.90;;;;;;6960638;28;20021;-67
2021/04/23 05:23:42;;;;;;;;;;;6.60;99.90;;;;;;6963640;28;20276;-66
2021/04/23 05:27:03;;;;;;;;;;;6.60;99.90;;;;;;6982078;28;19920;-65
2021/04/23 05:30:26;;;;;;;;;;;6.70;99.90;;;;;;6982213;28;19919;-65
2021/04/23 05:33:46;;;;;;;;;;;6.70;99.90;;;;;;6997458;28;19935;-66
2021/04/23 05:37:09;;;;;;;;;;;6.80;99.90;;;;;;6970777;28;20360;-66
2021/04/23 05:40:35;;;;;;;;;;;6.80;99.90;;;;;;6973794;28;20361;-64
2021/04/23 05:43:56;;;;;;;;;;;6.90;99.90;;;;;;6960256;28;20391;-64
2021/04/23 05:47:16;;;;;;;;;;;6.90;99.90;;;;;;6965955;28;19912;-66
2021/04/23 05:50:37;;;;;;;;;;;7.00;99.90;;;;;;6979198;28;19912;-65
2021/04/23 05:53:58;;;;;;;;;;;7.20;99.90;;;;;;6979533;28;19923;-65
2021/04/23 05:57:19;;;;;;;;;;;7.20;99.90;;;;;;6953571;28;19951;-66
2021/04/23 06:00:42;;;;;;;;;;;7.40;99.90;;;;;;6991576;28;19919;-65
2021/04/23 06:04:03;;;;;;;;;;;7.40;99.90;;;;;;6976297;28;19916;-65
2021/04/23 06:07:24;;;;;;;;;;;7.50;99.90;;;;;;6961095;28;20000;-64
2021/04/23 06:10:46;;;;;;;;;;;7.50;99.90;;;;;;6994922;28;20242;-66
2021/04/23 06:14:07;;;;;;;;;;;7.60;99.90;;;;;;6963642;28;19965;-66
2021/04/23 06:17:28;;;;;;;;;;;7.60;99.90;;;;;;6976180;28;19913;-66
2021/04/23 06:20:49;;;;;;;;;;;7.70;99.90;;;;;;6967201;28;19920;-65
2021/04/23 06:24:10;;;;;;;;;;;7.90;99.90;;;;;;6979903;28;19916;-65
2021/04/23 06:27:31;;;;;;;;;;;7.90;99.90;;;;;;6958264;28;19912;-65
2021/04/23 06:30:52;;;;;;;;;;;8.10;99.90;;;;;;6955061;28;19917;-64
2021/04/23 06:34:13;;;;;;;;;;;8.20;99.90;;;;;;6972767;28;20277;-64
2021/04/23 06:37:33;;;;;;;;;;;8.30;99.90;;;;;;6963140;28;19920;-64
2021/04/23 06:40:54;;;;;;;;;;;8.40;99.90;;;;;;6954458;28;19919;-64
2021/04/23 06:44:15;;;;;;;;;;;8.50;99.90;;;;;;6962581;28;19920;-65
2021/04/23 06:47:36;;;;;;;;;;;8.70;99.90;;;;;;6975466;28;20002;-65
2021/04/23 06:50:59;;;;;;;;;;;8.80;99.90;;;;;;6975745;28;20367;-65
2021/04/23 06:54:20;;;;;;;;;;;8.80;99.90;;;;;;6962563;28;19923;-65
2021/04/23 06:57:41;;;;;;;;;;;9.00;99.90;;;;;;6995653;28;20345;-64
2021/04/23 07:01:03;;;;;;;;;;;9.00;99.90;;;;;;6961748;28;20280;-64
2021/04/23 07:04:24;;;;;;;;;;;9.10;99.90;;;;;;6962482;28;19916;-65
2021/04/23 07:07:45;;;;;;;;;;;9.20;99.90;;;;;;6954913;28;20015;-65
2021/04/23 07:11:06;;;;;;;;;;;9.30;99.90;;;;;;6988702;28;19913;-65
2021/04/23 07:14:27;;;;;;;;;;;9.40;99.90;;;;;;6973781;28;19916;-65
2021/04/23 07:17:48;;;;;;;;;;;9.50;99.90;;;;;;6960859;28;19923;-65
2021/04/23 07:21:09;;;;;;;;;;;9.60;99.90;;;;;;6962558;28;19919;-66
2021/04/23 07:24:30;;;;;;;;;;;9.80;99.90;;;;;;6978785;28;19956;-66
2021/04/23 07:27:51;;;;;;;;;;;9.80;99.90;;;;;;6978382;28;19913;-65
2021/04/23 07:31:12;;;;;;;;;;;9.90;99.90;;;;;;6954936;28;19959;-66
2021/04/23 07:34:35;;;;;;;;;;;10.10;99.90;;;;;;6958903;28;19916;-66
2021/04/23 07:37:56;;;;;;;;;;;10.20;99.90;;;;;;6947264;28;19965;-66
2021/04/23 07:41:17;;;;;;;;;;;10.30;99.90;;;;;;6960518;28;19974;-65
2021/04/23 07:44:38;;;;;;;;;;;10.40;99.90;;;;;;6987937;28;19924;-66
2021/04/23 07:47:59;;;;;;;;;;;10.50;99.90;;;;;;6952073;28;20353;-64
2021/04/23 07:51:20;;;;;;;;;;;10.70;99.90;;;;;;6960470;28;19913;-64
2021/04/23 07:54:42;;;;;;;;;;;10.80;99.20;;;;;;6973478;28;19913;-64
2021/04/23 07:58:03;;;;;;;;;;;10.90;98.70;;;;;;6950495;28;19913;-64
2021/04/23 08:01:23;;;;;;;;;;;11.00;98.90;;;;;;6951640;28;20074;-66
2021/04/23 08:04:46;;;;;;;;;;;11.20;98.60;;;;;;6974843;28;19924;-65
2021/04/23 08:08:08;;;;;;;;;;;11.40;97.20;;;;;;6986404;28;19912;-65
2021/04/23 08:11:28;;;;;;;;;;;11.50;97.10;;;;;;6964111;28;19920;-66
2021/04/23 08:14:49;;;;;;;;;;;11.70;96.00;;;;;;6976254;28;19923;-64
2021/04/23 08:18:10;;;;;;;;;;;11.80;95.50;;;;;;6956513;28;19923;-65
2021/04/23 08:21:31;;;;;;;;;;;11.90;95.80;;;;;;6954862;28;20001;-65
2021/04/23 08:24:52;;;;;;;;;;;12.00;95.40;;;;;;6956390;28;19916;-65
2021/04/23 08:28:12;;;;;;;;;;;12.00;94.70;;;;;;6954558;28;19912;-64
2021/04/23 08:31:33;;;;;;;;;;;12.20;92.50;;;;;;6957852;28;20033;-65
2021/04/23 08:34:54;;;;;;;;;;;12.30;91.50;;;;;;6972935;28;19978;-65
2021/04/23 08:38:15;;;;;;;;;;;12.40;91.80;;;;;;6966064;28;19913;-66
2021/04/23 08:41:36;;;;;;;;;;;12.60;91.50;;;;;;6959333;28;19913;-64
2021/04/23 08:44:57;;;;;;;;;;;12.80;91.00;;;;;;6976933;28;19916;-66
2021/04/23 08:48:19;;;;;;;;;;;13.10;90.60;;;;;;6960511;28;19917;-67
2021/04/23 08:51:40;;;;;;;;;;;13.10;90.70;;;;;;6957928;28;20361;-66
2021/04/23 08:55:01;;;;;;;;;;;13.30;89.10;;;;;;6964911;28;20050;-65
2021/04/23 08:58:22;;;;;;;;;;;13.40;90.60;;;;;;6958353;28;20408;-65
2021/04/23 09:01:43;;;;;;;;;;;13.40;85.60;;;;;;6972725;28;19913;-66
2021/04/23 09:05:05;;;;;;;;;;;13.40;86.20;;;;;;6965725;28;19932;-66
2021/04/23 09:08:26;;;;;;;;;;;13.50;86.20;;;;;;6970938;28;19970;-66
2021/04/23 09:11:48;;;;;;;;;;;13.20;84.10;;;;;;6966155;28;19912;-66
2021/04/23 09:15:29;;;;;;;;;;;13.70;85.50;;;;;;6978790;28;19919;-66
2021/04/23 09:18:51;;;;;;;;;;;14.00;87.20;;;;;;6977432;28;19934;-66
2021/04/23 09:22:17;;;;;;;;;;;14.20;82.60;;;;;;6966711;28;19961;-66
2021/04/23 09:25:39;;;;;;;;;;;14.30;83.40;;;;;;6976386;28;19974;-64
2021/04/23 09:29:03;;;;;;;;;;;14.60;85.00;;;;;;6995021;28;19920;-64
2021/04/23 09:32:25;;;;;;;;;;;14.80;80.50;;;;;;6960534;28;19912;-65
2021/04/23 09:35:47;;;;;;;;;;;14.70;78.00;;;;;;6967569;28;19973;-65
2021/04/23 09:39:07;;;;;;;;;;;14.90;80.30;;;;;;6969213;28;19920;-66
2021/04/23 09:42:28;;;;;;;;;;;15.20;77.90;;;;;;6970777;28;19912;-64
2021/04/23 09:45:49;;;;;;;;;;;15.50;78.30;;;;;;6954053;28;19919;-64
2021/04/23 09:49:13;;;;;;;;;;;15.70;81.80;;;;;;6970612;28;19912;-64
2021/04/23 09:52:44;;;;;;;;;;;15.90;78.20;;;;;;6968481;28;20234;-66
2021/04/23 09:56:05;;;;;;;;;;;16.30;79.50;;;;;;6981063;28;19923;-66
2021/04/23 09:59:27;;;;;;;;;;;16.60;77.40;;;;;;6966256;28;19912;-67
2021/04/23 10:02:50;;;;;;;;;;;16.60;76.70;;;;;;6964086;28;20443;-66
2021/04/23 10:06:21;;;;;;;;;;;16.90;74.20;;;;;;6980835;28;20440;-67
2021/04/23 10:09:45;;;;;;;;;;;17.10;74.50;;;;;;6981186;28;20315;-66
2021/04/23 10:13:08;;;;;;;;;;;17.30;73.10;;;;;;6972628;28;19913;-67
2021/04/23 10:16:35;;;;;;;;;;;17.10;67.50;;;;;;6977595;28;19916;-66
2021/04/23 10:19:57;;;;;;;;;;;17.30;70.20;;;;;;6982139;28;20265;-66
2021/04/23 10:23:22;;;;;;;;;;;17.40;69.20;;;;;;6969016;28;20014;-67
2021/04/23 10:26:44;;;;;;;;;;;17.70;73.70;;;;;;6967819;28;20331;-66
2021/04/23 10:30:12;;;;;;;;;;;17.90;72.70;;;;;;6966848;28;19913;-65
2021/04/23 10:33:33;;;;;;;;;;;18.10;70.90;;;;;;6967390;28;19913;-66
2021/04/23 10:36:54;;;;;;;;;;;18.00;68.80;;;;;;6964083;28;20353;-65
2021/04/23 10:40:16;;;;;;;;;;;18.80;70.20;;;;;;6960960;28;19920;-65
2021/04/23 10:43:49;;;;;;;;;;;19.30;66.20;;;;;;6955326;28;19932;-64
2021/04/23 10:47:10;;;;;;;;;;;20.00;67.70;;;;;;6969027;28;19973;-66
2021/04/23 10:50:39;;;;;;;;;;;22.30;62.90;;;;;;6967109;28;20605;-66
2021/04/23 10:54:16;;;;;;;;;;;24.50;60.60;;;;;;6977231;28;19920;-66
2021/04/23 10:58:06;;;;;;;;;;;26.40;59.20;;;;;;6974280;28;19963;-64
2021/04/23 11:01:29;;;;;;;;;;;28.60;56.20;;;;;;6973365;28;20050;-64
2021/04/23 11:05:00;;;;;;;;;;;28.00;52.20;;;;;;6968601;28;19924;-65
2021/04/23 11:08:21;;;;;;;;;;;29.30;54.40;;;;;;6956263;28;19912;-65
2021/04/23 11:11:43;;;;;;;;;;;30.90;48.30;;;;;;6975414;28;19936;-65
2021/04/23 11:15:12;;;;;;;;;;;32.60;48.20;;;;;;6961497;28;19913;-65
2021/04/23 11:18:33;;;;;;;;;;;33.00;46.60;;;;;;6974143;28;20004;-65
2021/04/23 11:22:02;;;;;;;;;;;33.90;45.20;;;;;;6962784;28;19916;-66
2021/04/23 11:25:23;;;;;;;;;;;34.40;44.10;;;;;;6954441;28;19921;-66
2021/04/23 11:29:04;;;;;;;;;;;35.20;43.40;;;;;;6979419;28;19913;-65
2021/04/23 11:32:28;;;;;;;;;;;35.90;44.80;;;;;;6954365;28;20376;-65
2021/04/23 11:35:49;;;;;;;;;;;35.80;43.00;;;;;;6978509;28;19913;-67
2021/04/23 11:39:11;;;;;;;;;;;36.00;40.70;;;;;;6955975;28;19999;-67
2021/04/23 11:42:38;;;;;;;;;;;36.90;41.30;;;;;;6956889;28;20352;-64
2021/04/23 11:45:58;;;;;;;;;;;37.00;40.00;;;;;;6969346;28;19916;-65
2021/04/23 11:49:19;;;;;;;;;;;37.50;38.10;;;;;;6975442;28;19916;-65
2021/04/23 11:52:41;;;;;;;;;;;37.60;39.40;;;;;;6962376;28;19913;-65
2021/04/23 11:56:02;;;;;;;;;;;37.70;38.00;;;;;;6967186;28;20319;-65
2021/04/23 11:59:23;;;;;;;;;;;38.30;37.40;;;;;;6956576;28;19959;-64
2021/04/23 12:02:50;;;;;;;;;;;38.60;35.30;;;;;;6960174;28;20265;-65
2021/04/23 12:06:26;;;;;;;;;;;38.70;38.80;;;;;;6955439;28;19917;-65
2021/04/23 12:09:46;;;;;;;;;;;32.70;39.20;;;;;;6973229;28;19916;-64
2021/04/23 12:13:15;;;;;;;;;;;35.40;38.40;;;;;;6961779;28;20214;-65
2021/04/23 12:16:35;;;;;;;;;;;35.60;38.60;;;;;;6960122;28;19912;-64
2021/04/23 12:19:56;;;;;;;;;;;38.40;38.40;;;;;;6957399;28;20039;-66
2021/04/23 12:23:18;;;;;;;;;;;39.70;38.70;;;;;;6961274;28;19927;-66
2021/04/23 12:26:45;;;;;;;;;;;40.00;35.20;;;;;;6974130;28;19922;-66
2021/04/23 12:30:06;;;;;;;;;;;39.80;36.10;;;;;;6960943;28;19919;-67
2021/04/23 12:33:36;;;;;;;;;;;40.60;33.90;;;;;;6963733;28;19916;-67
2021/04/23 12:36:57;;;;;;;;;;;40.30;35.80;;;;;;6965144;28;19913;-67
2021/04/23 12:40:35;;;;;;;;;;;40.20;34.00;;;;;;6966672;28;19916;-67
2021/04/23 12:43:59;;;;;;;;;;;39.30;35.90;;;;;;6983201;28;19916;-66
2021/04/23 12:47:20;;;;;;;;;;;35.10;37.10;;;;;;6961645;28;20011;-65
2021/04/23 12:50:41;;;;;;;;;;;35.70;38.00;;;;;;6967632;28;19923;-65
2021/04/23 12:54:02;;;;;;;;;;;35.30;38.60;;;;;;6969413;28;19916;-65
2021/04/23 12:57:23;;;;;;;;;;;32.80;39.10;;;;;;6983500;28;20377;-66
2021/04/23 13:00:44;;;;;;;;;;;33.60;39.40;;;;;;6983068;28;19912;-67
2021/04/23 13:04:10;;;;;;;;;;;34.20;39.00;;;;;;6963438;28;19912;-67
2021/04/23 13:07:32;;;;;;;;;;;33.30;38.60;;;;;;6980545;28;19913;-65
2021/04/23 13:10:54;;;;;;;;;;;31.60;40.60;;;;;;6969508;28;19912;-65
2021/04/23 13:14:19;;;;;;;;;;;32.10;41.40;;;;;;6978464;28;19923;-65
2021/04/23 13:17:44;;;;;;;;;;;34.80;40.50;;;;;;6978362;28;20425;-65
2021/04/23 13:21:09;;;;;;;;;;;34.00;39.20;;;;;;6961732;28;19916;-66
2021/04/23 13:24:30;;;;;;;;;;;32.90;39.40;;;;;;6982769;28;19917;-65
2021/04/23 13:27:52;;;;;;;;;;;28.40;43.00;;;;;;6966335;28;19919;-66
2021/04/23 13:31:17;;;;;;;;;;;30.80;43.00;;;;;;6973487;28;19921;-65
2021/04/23 13:34:50;;;;;;;;;;;30.70;41.10;;;;;;6958500;28;19921;-65
2021/04/23 13:38:26;;;;;;;;;;;29.00;44.00;;;;;;6980103;28;20027;-65
2021/04/23 13:41:48;;;;;;;;;;;31.00;42.10;;;;;;6961043;28;19917;-65
2021/04/23 13:45:13;;;;;;;;;;;30.30;41.60;;;;;;6980535;28;19916;-65
2021/04/23 13:48:35;;;;;;;;;;;26.80;45.80;;;;;;6961075;28;19952;-65
2021/04/23 13:51:58;;;;;;;;;;;28.70;43.60;;;;;;6979241;28;19920;-65
2021/04/23 13:55:19;;;;;;;;;;;26.80;46.20;;;;;;7000175;28;19922;-65
2021/04/23 13:59:09;;;;;;;;;;;26.30;47.80;;;;;;6956677;28;20558;-65
2021/04/23 14:02:30;;;;;;;;;;;28.70;45.40;;;;;;6971063;28;19913;-64
2021/04/23 14:05:51;;;;;;;;;;;28.40;45.10;;;;;;6967436;28;19959;-64
2021/04/23 14:09:13;;;;;;;;;;;32.50;41.30;;;;;;6979432;28;19913;-65
2021/04/23 14:12:34;;;;;;;;;;;30.50;41.50;;;;;;6996365;28;19942;-67
2021/04/23 14:15:55;;;;;;;;;;;31.50;43.80;;;;;;6961178;28;19920;-68
2021/04/23 14:19:16;;;;;;;;;;;33.00;42.50;;;;;;6977912;28;19948;-67
2021/04/23 14:22:37;;;;;;;;;;;30.30;44.70;;;;;;6954562;28;19948;-66
2021/04/23 14:25:58;;;;;;;;;;;26.50;46.00;;;;;;6998606;28;19923;-66
2021/04/23 14:29:20;;;;;;;;;;;23.30;50.40;;;;;;6958998;28;19912;-66
2021/04/23 14:32:41;;;;;;;;;;;22.00;50.20;;;;;;6952972;28;19913;-66
2021/04/23 14:36:02;;;;;;;;;;;20.40;52.20;;;;;;6972104;28;19967;-64
2021/04/23 14:39:24;;;;;;;;;;;19.60;54.40;;;;;;6975020;28;19916;-65
2021/04/23 14:42:45;;;;;;;;;;;20.00;53.40;;;;;;6983489;28;19926;-65
2021/04/23 14:46:06;;;;;;;;;;;21.70;51.80;;;;;;6963953;28;19912;-67
2021/04/23 14:49:26;;;;;;;;;;;28.70;48.20;;;;;;6962472;28;20387;-66
2021/04/23 14:52:47;;;;;;;;;;;28.60;45.30;;;;;;6960073;28;19966;-67
2021/04/23 14:56:08;;;;;;;;;;;32.30;45.00;;;;;;6972315;28;19917;-67
2021/04/23 14:59:29;;;;;;;;;;;34.30;41.50;;;;;;6976519;28;19924;-67
2021/04/23 15:02:50;;;;;;;;;;;33.00;41.40;;;;;;6958947;28;19920;-66
2021/04/23 15:06:11;;;;;;;;;;;28.60;44.10;;;;;;6962652;28;19920;-67
2021/04/23 15:09:32;;;;;;;;;;;25.10;49.70;;;;;;6956863;28;20279;-66
2021/04/23 15:12:53;;;;;;;;;;;29.00;47.40;;;;;;6956202;28;19917;-68
2021/04/23 15:16:15;;;;;;;;;;;27.60;46.20;;;;;;6950113;28;19913;-66
2021/04/23 15:19:37;;;;;;;;;;;26.00;48.30;;;;;;6955302;28;19920;-66
2021/04/23 15:22:58;;;;;;;;;;;25.50;48.70;;;;;;6953144;28;20262;-66
2021/04/23 15:26:19;;;;;;;;;;;26.40;48.70;;;;;;6974247;28;20003;-67
2021/04/23 15:29:39;;;;;;;;;;;27.60;47.10;;;;;;6970302;28;19981;-67
2021/04/23 15:33:02;;;;;;;;;;;27.80;46.30;;;;;;6970296;28;19920;-67
2021/04/23 15:36:23;;;;;;;;;;;25.80;47.80;;;;;;6956775;28;20285;-66
2021/04/23 15:39:44;;;;;;;;;;;24.60;49.20;;;;;;6983701;28;19919;-68
2021/04/23 15:43:05;;;;;;;;;;;24.60;52.00;;;;;;6969030;28;19920;-67
2021/04/23 15:46:26;;;;;;;;;;;24.70;50.00;;;;;;6959439;28;19919;-68
2021/04/23 15:49:48;;;;;;;;;;;23.00;48.90;;;;;;6983787;28;20344;-67
2021/04/23 15:53:09;;;;;;;;;;;21.90;51.40;;;;;;6974461;28;19928;-65
2021/04/23 15:56:30;;;;;;;;;;;19.80;52.70;;;;;;6979216;28;20364;-65
2021/04/23 15:59:51;;;;;;;;;;;19.00;54.00;;;;;;6960457;28;19944;-66
2021/04/23 16:03:12;;;;;;;;;;;19.50;55.20;;;;;;6976754;28;19924;-65
2021/04/23 16:06:33;;;;;;;;;;;19.80;55.70;;;;;;6975208;28;19951;-66
2021/04/23 16:09:54;;;;;;;;;;;19.30;55.20;;;;;;6973454;28;20037;-64
2021/04/23 16:13:14;;;;;;;;;;;18.50;56.10;;;;;;6955423;28;20302;-65
2021/04/23 16:16:35;;;;;;;;;;;17.60;57.60;;;;;;6974512;28;20350;-64
2021/04/23 16:19:56;;;;;;;;;;;16.90;58.40;;;;;;6973731;28;19974;-64
2021/04/23 16:23:19;;;;;;;;;;;16.20;58.50;;;;;;6963280;28;20245;-65
2021/04/23 16:26:41;;;;;;;;;;;16.00;61.40;;;;;;6966650;28;19919;-66
2021/04/23 16:30:02;;;;;;;;;;;16.10;59.90;;;;;;6976858;28;19916;-66
2021/04/23 16:33:23;;;;;;;;;;;16.00;60.60;;;;;;6969087;28;19923;-66
2021/04/23 16:36:44;;;;;;;;;;;15.70;60.90;;;;;;6976403;28;19913;-66
2021/04/23 16:40:07;;;;;;;;;;;15.40;61.20;;;;;;6968552;28;20032;-66
2021/04/23 16:43:28;;;;;;;;;;;15.20;61.40;;;;;;6961843;28;19956;-66
2021/04/23 16:46:49;;;;;;;;;;;15.00;63.60;;;;;;6971316;28;19920;-63
2021/04/23 16:50:11;;;;;;;;;;;14.70;63.30;;;;;;6973306;28;20012;-64
2021/04/23 16:53:32;;;;;;;;;;;14.50;64.40;;;;;;6994204;28;19916;-66
2021/04/23 16:56:53;;;;;;;;;;;14.50;64.40;;;;;;6969981;28;19919;-66
2021/04/23 17:00:15;;;;;;;;;;;14.40;64.00;;;;;;6963999;28;19925;-66
2021/04/23 17:03:36;;;;;;;;;;;14.20;66.10;;;;;;6977510;28;20323;-66
2021/04/23 17:06:57;;;;;;;;;;;14.20;67.50;;;;;;6981826;28;19912;-67
2021/04/23 17:10:19;;;;;;;;;;;14.10;67.30;;;;;;6965765;28;19917;-65
2021/04/23 17:13:39;;;;;;;;;;;13.90;66.30;;;;;;6963668;28;19916;-64
2021/04/23 17:17:00;;;;;;;;;;;13.90;67.90;;;;;;7003901;28;19916;-67
2021/04/23 17:20:21;;;;;;;;;;;13.70;68.10;;;;;;6986240;28;19924;-66
2021/04/23 17:23:42;;;;;;;;;;;13.50;68.40;;;;;;6997153;28;19919;-66
2021/04/23 17:27:03;;;;;;;;;;;13.30;69.70;;;;;;6960757;28;19913;-66
2021/04/23 17:30:25;;;;;;;;;;;13.20;70.60;;;;;;6960786;28;20273;-64
2021/04/23 17:33:46;;;;;;;;;;;12.90;70.80;;;;;;6955597;28;19917;-65
2021/04/23 17:37:06;;;;;;;;;;;12.60;71.50;;;;;;6958690;28;19966;-65
2021/04/23 17:40:27;;;;;;;;;;;12.60;71.80;;;;;;6961250;28;19947;-64
2021/04/23 17:43:48;;;;;;;;;;;12.60;72.30;;;;;;6981262;28;19999;-64
2021/04/23 17:47:09;;;;;;;;;;;12.40;73.70;;;;;;6957963;28;19920;-65
2021/04/23 17:50:30;;;;;;;;;;;12.50;73.30;;;;;;6974020;28;19952;-64
2021/04/23 17:53:51;;;;;;;;;;;12.40;73.60;;;;;;6978481;28;19917;-65
2021/04/23 17:57:12;;;;;;;;;;;12.30;74.10;;;;;;6960015;28;19912;-64
2021/04/23 18:00:33;;;;;;;;;;;12.20;74.60;;;;;;6975744;28;19916;-64
2021/04/23 18:03:54;;;;;;;;;;;12.10;74.60;;;;;;6971425;28;19912;-64
2021/04/23 18:07:14;;;;;;;;;;;11.90;75.70;;;;;;6962567;28;19916;-64
2021/04/23 18:10:35;;;;;;;;;;;11.80;76.20;;;;;;6968662;28;20006;-66
2021/04/23 18:13:56;;;;;;;;;;;11.70;76.10;;;;;;6979305;28;19920;-64
2021/04/23 18:17:17;;;;;;;;;;;11.70;76.20;;;;;;6963603;28;19941;-64
2021/04/23 18:20:38;;;;;;;;;;;11.50;77.70;;;;;;6977342;28;19927;-64
2021/04/23 18:23:59;;;;;;;;;;;11.40;77.60;;;;;;6976073;28;19995;-64
2021/04/23 18:27:20;;;;;;;;;;;11.30;78.20;;;;;;6959774;28;19962;-65
2021/04/23 18:30:40;;;;;;;;;;;11.10;80.50;;;;;;6990231;28;19981;-64
2021/04/23 18:34:05;;;;;;;;;;;10.90;79.40;;;;;;6995831;28;19923;-65
2021/04/23 18:37:26;;;;;;;;;;;10.90;79.80;;;;;;6953016;28;20368;-67
2021/04/23 18:40:47;;;;;;;;;;;10.80;80.30;;;;;;6963261;28;19912;-64
2021/04/23 18:44:09;;;;;;;;;;;10.70;79.80;;;;;;6966694;28;20039;-65
2021/04/23 18:47:30;;;;;;;;;;;10.70;80.70;;;;;;6970867;28;19913;-64
2021/04/23 18:50:52;;;;;;;;;;;10.50;81.60;;;;;;6961108;28;19919;-66
2021/04/23 18:54:13;;;;;;;;;;;10.50;81.50;;;;;;6972697;28;19920;-69
2021/04/23 18:57:34;;;;;;;;;;;10.30;82.00;;;;;;6973833;28;19912;-68
2021/04/23 19:00:55;;;;;;;;;;;10.20;83.40;;;;;;6967293;28;19956;-68
2021/04/23 19:04:16;;;;;;;;;;;10.20;84.00;;;;;;6956263;28;19931;-68
2021/04/23 19:07:37;;;;;;;;;;;10.10;83.60;;;;;;6977958;28;19916;-66
2021/04/23 19:10:58;;;;;;;;;;;10.00;84.30;;;;;;6950957;28;20004;-65
2021/04/23 19:14:19;;;;;;;;;;;9.90;85.70;;;;;;6968250;28;20479;-66
2021/04/23 19:17:44;;;;;;;;;;;9.90;86.80;;;;;;6960403;28;20036;-67
2021/04/23 19:21:05;;;;;;;;;;;9.80;87.50;;;;;;6978305;28;19913;-67
2021/04/23 19:24:26;;;;;;;;;;;9.70;87.80;;;;;;6976682;28;19913;-67
2021/04/23 19:27:47;;;;;;;;;;;9.60;88.90;;;;;;6952413;28;19917;-67
2021/04/23 19:31:08;;;;;;;;;;;9.50;89.50;;;;;;6977675;28;19919;-67
2021/04/23 19:34:29;;;;;;;;;;;9.40;90.40;;;;;;6950995;28;20254;-67
2021/04/23 19:37:50;;;;;;;;;;;9.40;90.50;;;;;;6959372;28;19935;-66
2021/04/23 19:41:11;;;;;;;;;;;9.40;90.60;;;;;;6956566;28;19999;-66